Time;durP1;ratioP1;P1;durP2;ratioP2;P2;SDS_P1;SDS_P2;PMS_P1;PMS_P2;Temp;Humidity;BMP_temperature;BMP_pressure;BME280_temperature;BME280_humidity;BME280_pressure;Samples;Min_cycle;Max_cycle;Signal;HPM_P1;HPM_P2
2021/06/11 00:00:25;;;;;;;1.87;1.00;;;;;;;20.48;71.83;100755.56;4405915;32;20409;-73
2021/06/11 00:02:51;;;;;;;0.95;0.62;;;;;;;20.39;72.04;100747.94;4391435;32;20501;-73
2021/06/11 00:05:17;;;;;;;1.45;0.73;;;;;;;20.39;72.05;100770.81;4398385;32;20038;-73
2021/06/11 00:07:43;;;;;;;5.32;1.50;;;;;;;20.41;72.09;100762.53;4397631;32;20050;-73
2021/06/11 00:10:13;;;;;;;2.05;0.82;;;;;;;20.43;72.04;100762.78;4395296;32;20050;-73
2021/06/11 00:12:41;;;;;;;2.35;0.95;;;;;;;20.40;72.16;100760.94;4394989;32;20429;-73
2021/06/11 00:15:09;;;;;;;1.15;0.80;;;;;;;20.47;71.90;100757.62;4394179;32;20095;-73
2021/06/11 00:17:35;;;;;;;2.28;0.60;;;;;;;20.52;71.61;100762.59;4393379;32;20135;-73
2021/06/11 00:20:04;;;;;;;1.80;0.77;;;;;;;20.47;71.60;100760.50;4390922;32;20411;-73
2021/06/11 00:22:29;;;;;;;1.45;0.70;;;;;;;20.55;71.27;100766.53;4394449;32;20363;-72
2021/06/11 00:24:55;;;;;;;0.80;0.70;;;;;;;20.49;71.18;100760.75;4392298;32;20464;-73
2021/06/11 00:27:21;;;;;;;1.20;0.98;;;;;;;20.52;71.13;100753.25;4379688;32;20762;-73
2021/06/11 00:29:47;;;;;;;0.77;0.60;;;;;;;20.48;71.37;100761.25;4392323;32;20101;-73
2021/06/11 00:32:14;;;;;;;1.50;0.90;;;;;;;20.45;71.29;100760.22;4393656;32;20457;-73
2021/06/11 00:34:40;;;;;;;2.05;0.80;;;;;;;20.43;71.42;100762.03;4394184;32;20077;-73
2021/06/11 00:37:07;;;;;;;2.90;0.70;;;;;;;20.45;71.27;100771.66;4395932;32;20034;-73
2021/06/11 00:39:33;;;;;;;1.65;0.95;;;;;;;20.44;71.07;100769.28;4395639;32;20377;-73
2021/06/11 00:42:01;;;;;;;2.53;0.90;;;;;;;20.48;70.82;100767.78;4392759;32;20034;-73
2021/06/11 00:44:27;;;;;;;2.47;0.70;;;;;;;20.48;70.66;100776.34;4390733;32;20106;-72
2021/06/11 00:46:53;;;;;;;1.60;0.70;;;;;;;20.50;70.65;100762.34;4389749;32;20100;-73
2021/06/11 00:49:19;;;;;;;0.70;0.70;;;;;;;20.45;70.91;100754.50;4393502;32;20544;-73
2021/06/11 00:51:45;;;;;;;1.92;0.75;;;;;;;20.57;70.38;100761.88;4394793;32;20358;-73
2021/06/11 00:54:12;;;;;;;0.70;0.70;;;;;;;20.56;70.38;100768.87;4394825;32;20078;-73
2021/06/11 00:56:38;;;;;;;1.25;0.88;;;;;;;20.53;70.43;100761.34;4396036;32;20129;-73
2021/06/11 00:59:04;;;;;;;2.12;0.93;;;;;;;20.49;70.72;100763.63;4393020;32;20465;-73
2021/06/11 01:01:30;;;;;;;1.62;0.70;;;;;;;20.52;70.56;100764.69;4391927;32;20090;-73
2021/06/11 01:03:56;;;;;;;0.75;0.62;;;;;;;20.38;71.10;100754.16;4390263;32;20917;-73
2021/06/11 01:06:22;;;;;;;1.33;0.90;;;;;;;20.46;70.51;100756.06;4394795;32;20050;-73
2021/06/11 01:08:50;;;;;;;1.62;0.80;;;;;;;20.51;70.42;100758.19;4396026;32;20468;-73
2021/06/11 01:11:18;;;;;;;3.75;1.10;;;;;;;20.41;70.66;100759.66;4391330;32;20775;-73
2021/06/11 01:13:44;;;;;;;2.03;1.00;;;;;;;20.40;70.59;100766.66;4392884;32;20116;-73
2021/06/11 01:16:10;;;;;;;1.55;0.88;;;;;;;20.40;70.42;100752.34;4394319;32;20051;-73
2021/06/11 01:18:36;;;;;;;2.25;1.05;;;;;;;20.40;70.33;100754.47;4396611;32;20409;-73
2021/06/11 01:21:04;;;;;;;1.00;0.80;;;;;;;20.41;70.28;100759.66;4397546;32;20049;-73
2021/06/11 01:28:51;;;;;;;3.35;0.80;;;;;;;20.77;69.42;100758.91;4447200;31;683034;-73
2021/06/11 01:31:19;;;;;;;2.97;0.93;;;;;;;20.77;69.42;100758.91;4448997;32;20072;-73
2021/06/11 01:33:50;;;;;;;1.77;1.00;;;;;;;20.50;69.63;100758.69;4455884;32;20069;-73
2021/06/11 01:36:22;;;;;;;1.77;0.70;;;;;;;20.45;70.02;100747.97;4456551;32;20447;-73
2021/06/11 01:38:50;;;;;;;1.48;0.90;;;;;;;20.41;69.83;100753.94;4449092;32;20454;-73
2021/06/11 01:41:19;;;;;;;2.10;1.20;;;;;;;20.33;69.85;100757.75;4452398;32;20492;-73
2021/06/11 01:43:47;;;;;;;2.55;1.10;;;;;;;20.29;69.95;100752.28;4455872;32;20452;-73
2021/06/11 01:46:16;;;;;;;1.25;1.05;;;;;;;20.29;69.97;100751.47;4456981;32;20159;-74
2021/06/11 01:48:45;;;;;;;1.62;1.10;;;;;;;20.24;69.88;100749.34;4455601;32;20064;-73
2021/06/11 01:51:11;;;;;;;1.60;0.93;;;;;;;20.26;69.98;100750.44;4450689;32;20036;-73
2021/06/11 01:53:40;;;;;;;1.20;1.00;;;;;;;20.17;70.34;100746.94;4455983;32;20052;-73
2021/06/11 01:56:06;;;;;;;3.17;1.12;;;;;;;20.11;70.34;100744.00;4456528;32;20021;-72
2021/06/11 01:58:34;;;;;;;2.00;0.82;;;;;;;20.09;70.62;100740.09;4450425;32;20370;-72
2021/06/11 02:01:00;;;;;;;2.20;0.88;;;;;;;20.08;70.48;100741.38;4449000;32;20353;-72
2021/06/11 02:03:28;;;;;;;4.78;1.08;;;;;;;20.10;70.54;100727.38;4441134;32;20384;-72
2021/06/11 02:05:53;;;;;;;1.12;1.00;;;;;;;20.05;70.57;100736.66;4440237;32;20490;-72
2021/06/11 02:08:21;;;;;;;1.45;0.98;;;;;;;20.02;70.78;100729.09;4440152;32;20132;-72
2021/06/11 02:10:47;;;;;;;1.80;1.10;;;;;;;20.06;70.59;100724.72;4438569;32;20366;-72
2021/06/11 02:13:13;;;;;;;1.77;1.20;;;;;;;20.12;70.45;100724.81;4438263;32;20388;-72
2021/06/11 02:15:41;;;;;;;2.10;1.00;;;;;;;20.16;70.23;100723.31;4440311;32;20069;-72
2021/06/11 02:18:06;;;;;;;1.73;1.00;;;;;;;20.19;70.08;100719.44;4440746;32;20420;-72
2021/06/11 02:20:33;;;;;;;1.90;1.00;;;;;;;20.25;69.90;100725.97;4437506;32;20037;-72
2021/06/11 02:22:59;;;;;;;1.05;0.73;;;;;;;20.30;69.45;100728.13;4442918;32;20354;-72
2021/06/11 02:25:27;;;;;;;1.58;1.02;;;;;;;20.30;69.54;100730.19;4439045;32;20509;-72
2021/06/11 02:27:55;;;;;;;3.87;1.52;;;;;;;20.36;69.04;100731.00;4439813;32;20041;-72
2021/06/11 02:30:22;;;;;;;1.80;1.02;;;;;;;20.36;68.84;100731.81;4434091;32;20407;-72
2021/06/11 02:32:48;;;;;;;1.58;1.10;;;;;;;20.31;69.04;100740.34;4440854;32;20041;-72
2021/06/11 02:35:19;;;;;;;3.40;1.17;;;;;;;20.33;68.91;100735.69;4437886;32;20149;-72
2021/06/11 02:37:46;;;;;;;1.40;1.02;;;;;;;20.27;69.19;100736.91;4442386;32;20045;-72
2021/06/11 02:40:13;;;;;;;2.03;0.95;;;;;;;20.25;69.33;100728.06;4428138;32;20536;-72
2021/06/11 02:42:41;;;;;;;1.48;0.90;;;;;;;20.19;69.50;100735.81;4428101;32;20458;-71
2021/06/11 02:45:11;;;;;;;4.28;1.30;;;;;;;20.11;69.65;100732.59;4426643;32;20451;-72
2021/06/11 02:50:25;;;;;;;2.17;1.17;;;;;;;20.53;69.00;100735.59;4444682;31;711793;-73
2021/06/11 02:52:57;;;;;;;1.62;0.98;;;;;;;20.53;69.00;100735.59;4449654;32;20068;-73
2021/06/11 02:55:24;;;;;;;3.17;1.00;;;;;;;20.15;69.63;100726.69;4447847;32;20678;-72
2021/06/11 02:57:58;;;;;;;1.67;1.12;;;;;;;20.12;69.58;100727.66;4449856;32;20071;-73
2021/06/11 03:00:28;;;;;;;1.75;0.98;;;;;;;20.16;69.50;100725.37;4451195;32;20104;-73
2021/06/11 03:05:43;;;;;;;2.30;1.23;;;;;;;20.44;68.53;100730.06;4434474;31;696684;-73
2021/06/11 03:08:12;;;;;;;2.25;1.08;;;;;;;20.44;68.53;100730.06;4437646;32;20072;-73
2021/06/11 03:10:42;;;;;;;1.90;1.00;;;;;;;19.96;69.71;100720.47;4439776;32;20037;-72
2021/06/11 03:13:09;;;;;;;2.28;1.48;;;;;;;19.93;69.73;100718.63;4439394;32;20097;-72
2021/06/11 03:15:36;;;;;;;2.78;1.25;;;;;;;19.83;70.13;100709.44;4438246;32;20045;-72
2021/06/11 03:18:07;;;;;;;1.55;1.30;;;;;;;19.79;70.20;100719.53;4438893;32;20061;-72
2021/06/11 03:20:40;;;;;;;1.60;1.20;;;;;;;19.71;70.50;100713.47;4441523;32;20038;-72
2021/06/11 03:23:16;;;;;;;6.12;1.42;;;;;;;19.68;70.54;100717.34;4438234;32;20156;-72
2021/06/11 03:28:24;;;;;;;2.12;1.20;;;;;;;19.91;70.38;100712.63;4434556;31;693100;-73
2021/06/11 03:30:55;;;;;;;1.77;1.25;;;;;;;19.91;70.38;100712.63;4449687;32;20785;-73
2021/06/11 03:33:23;;;;;;;2.03;1.17;;;;;;;19.53;71.12;100710.94;4454887;32;20032;-73
2021/06/11 03:35:54;;;;;;;2.60;1.20;;;;;;;19.48;71.46;100713.69;4453636;32;20397;-73
2021/06/11 03:38:25;;;;;;;4.25;1.42;;;;;;;19.42;71.61;100712.88;4450547;32;20033;-73
2021/06/11 03:40:53;;;;;;;2.00;1.20;;;;;;;19.48;71.23;100716.53;4453604;32;20396;-72
2021/06/11 03:43:19;;;;;;;1.92;1.10;;;;;;;19.45;71.33;100723.25;4456688;32;20428;-73
2021/06/11 03:45:45;;;;;;;1.70;1.00;;;;;;;19.54;70.96;100715.34;4455028;32;20410;-73
2021/06/11 03:48:15;;;;;;;1.95;1.10;;;;;;;19.47;70.97;100721.50;4451854;32;20376;-73
2021/06/11 03:50:46;;;;;;;2.97;1.23;;;;;;;19.62;70.43;100718.53;4455278;32;20084;-73
2021/06/11 03:53:14;;;;;;;3.25;1.10;;;;;;;19.65;70.18;100724.03;4451598;32;20474;-73
2021/06/11 03:55:43;;;;;;;2.47;0.93;;;;;;;19.77;69.41;100724.94;4452563;32;20390;-73
2021/06/11 03:58:13;;;;;;;2.28;1.48;;;;;;;19.94;69.04;100716.56;4456884;32;20482;-73
2021/06/11 04:00:43;;;;;;;3.97;1.40;;;;;;;19.98;68.75;100720.78;4452966;32;20044;-73
2021/06/11 04:03:09;;;;;;;1.10;1.00;;;;;;;19.87;68.95;100714.94;4440889;32;20153;-73
2021/06/11 04:05:36;;;;;;;2.85;1.30;;;;;;;19.91;68.77;100709.78;4440847;32;20054;-73
2021/06/11 04:08:06;;;;;;;6.35;1.52;;;;;;;20.12;67.95;100713.38;4441745;32;20046;-73
2021/06/11 04:13:25;;;;;;;2.42;1.40;;;;;;;20.55;66.04;100721.56;4435783;31;715082;-73
2021/06/11 04:15:53;;;;;;;2.50;1.50;;;;;;;20.55;66.04;100721.56;4440962;32;20117;-74
2021/06/11 04:18:26;;;;;;;2.17;1.20;;;;;;;20.11;67.30;100726.06;4444449;32;20106;-73
2021/06/11 04:20:56;;;;;;;3.25;1.40;;;;;;;20.23;66.76;100734.28;4443138;32;20034;-73
2021/06/11 04:23:26;;;;;;;1.75;1.10;;;;;;;20.22;66.24;100729.84;4440377;32;20022;-73
2021/06/11 04:25:56;;;;;;;1.98;1.12;;;;;;;20.22;65.78;100720.50;4443150;32;20420;-73
2021/06/11 04:28:23;;;;;;;4.43;1.27;;;;;;;20.28;65.94;100733.53;4443075;32;20381;-73
2021/06/11 04:30:52;;;;;;;3.42;1.40;;;;;;;20.30;65.74;100730.97;4439448;32;20453;-73
2021/06/11 04:33:19;;;;;;;3.10;1.10;;;;;;;20.36;65.23;100743.25;4443800;32;20470;-73
2021/06/11 04:35:45;;;;;;;2.17;1.30;;;;;;;20.46;64.84;100741.75;4441459;32;20364;-73
2021/06/11 04:38:13;;;;;;;3.37;1.40;;;;;;;20.39;65.22;100738.56;4440993;32;20448;-73
2021/06/11 04:40:39;;;;;;;2.70;1.27;;;;;;;20.28;65.55;100747.06;4442104;32;20089;-73
2021/06/11 04:43:05;;;;;;;4.55;1.55;;;;;;;20.26;65.71;100741.84;4442805;32;20090;-73
2021/06/11 04:45:32;;;;;;;3.40;1.45;;;;;;;20.23;66.11;100744.94;4438807;32;20139;-73
2021/06/11 04:48:00;;;;;;;4.85;1.52;;;;;;;20.13;66.67;100740.69;4442580;32;20063;-73
2021/06/11 04:50:26;;;;;;;2.80;1.52;;;;;;;20.22;66.33;100738.41;4441794;32;21532;-73
2021/06/11 04:52:52;;;;;;;3.95;1.75;;;;;;;20.22;66.31;100746.22;4442879;32;20102;-72
2021/06/11 04:55:18;;;;;;;3.37;1.20;;;;;;;20.35;66.08;100744.53;4441932;32;20033;-73
2021/06/11 04:57:44;;;;;;;1.50;1.20;;;;;;;20.43;65.78;100756.31;4442852;32;20077;-73
2021/06/11 05:00:10;;;;;;;2.35;1.35;;;;;;;20.38;65.79;100746.38;4439488;32;20422;-73
2021/06/11 05:02:36;;;;;;;4.28;1.58;;;;;;;20.45;65.24;100753.69;4427557;32;20369;-73
2021/06/11 05:05:03;;;;;;;2.10;1.12;;;;;;;20.43;65.31;100756.31;4426578;32;20133;-73
2021/06/11 05:07:28;;;;;;;1.90;1.00;;;;;;;20.40;65.15;100752.34;4424034;32;20042;-73
2021/06/11 05:09:54;;;;;;;6.32;1.58;;;;;;;20.48;65.02;100746.97;4422491;32;20902;-73
2021/06/11 05:12:20;;;;;;;3.03;1.37;;;;;;;20.61;64.50;100742.41;4422909;32;20037;-73
2021/06/11 05:14:46;;;;;;;4.15;1.00;;;;;;;20.76;63.56;100756.56;4424327;32;20193;-73
2021/06/11 05:17:11;;;;;;;5.00;1.40;;;;;;;20.84;62.89;100761.31;4424247;32;20026;-73
2021/06/11 05:19:39;;;;;;;2.03;0.80;;;;;;;20.91;62.79;100749.41;4426085;32;20050;-73
2021/06/11 05:22:05;;;;;;;2.55;1.37;;;;;;;21.00;62.23;100757.81;4421820;32;20382;-73
2021/06/11 05:24:31;;;;;;;3.92;1.08;;;;;;;21.10;61.58;100756.31;4413148;32;20085;-73
2021/06/11 05:26:56;;;;;;;3.53;0.82;;;;;;;21.23;61.10;100756.66;4413890;32;20092;-73
2021/06/11 05:29:22;;;;;;;6.25;1.35;;;;;;;21.30;60.81;100753.28;4413296;32;20470;-73
2021/06/11 05:31:48;;;;;;;6.15;0.90;;;;;;;21.08;61.32;100735.25;4414346;32;20081;-73
2021/06/11 05:34:14;;;;;;;1.73;0.90;;;;;;;21.04;61.45;100734.66;4415545;32;20121;-73
2021/06/11 05:36:40;;;;;;;4.05;1.00;;;;;;;20.95;61.89;100729.16;4410827;32;20065;-73
2021/06/11 05:39:06;;;;;;;1.65;0.90;;;;;;;21.12;61.59;100747.22;4413917;32;20074;-73
2021/06/11 05:41:32;;;;;;;4.82;1.10;;;;;;;21.20;61.38;100754.81;4412828;32;20038;-73
2021/06/11 05:43:58;;;;;;;4.15;1.02;;;;;;;21.39;60.72;100755.94;4413725;32;20422;-73
2021/06/11 05:46:24;;;;;;;1.10;1.00;;;;;;;21.47;60.15;100761.97;4413884;32;20435;-73
2021/06/11 05:48:50;;;;;;;3.35;0.98;;;;;;;21.54;59.77;100764.38;4414566;32;20449;-73
2021/06/11 05:51:16;;;;;;;1.62;0.80;;;;;;;21.49;59.83;100757.31;4414231;32;20038;-72
2021/06/11 05:53:42;;;;;;;3.80;0.95;;;;;;;21.55;59.30;100758.13;4413280;32;20034;-73
2021/06/11 05:56:08;;;;;;;1.40;0.70;;;;;;;21.58;59.17;100754.22;4411550;32;20083;-72
2021/06/11 05:58:36;;;;;;;1.55;0.90;;;;;;;21.43;59.60;100762.22;4412651;32;20038;-71
2021/06/11 06:01:03;;;;;;;5.25;0.80;;;;;;;21.53;59.15;100771.38;4412137;32;20029;-72
2021/06/11 06:03:29;;;;;;;2.95;0.90;;;;;;;21.66;58.68;100771.69;4414097;32;20045;-72
2021/06/11 06:05:55;;;;;;;1.80;0.70;;;;;;;21.67;58.55;100762.56;4415187;32;20046;-72
2021/06/11 06:08:21;;;;;;;1.42;0.65;;;;;;;21.87;58.00;100758.78;4413700;32;21198;-72
2021/06/11 06:10:48;;;;;;;1.20;0.62;;;;;;;22.07;56.59;100761.44;4409396;32;20427;-72
2021/06/11 06:13:14;;;;;;;3.67;0.70;;;;;;;22.30;55.26;100768.78;4409536;32;20074;-72
2021/06/11 06:15:41;;;;;;;0.88;0.70;;;;;;;22.32;54.95;100757.59;4412219;32;20129;-72
2021/06/11 06:18:07;;;;;;;3.45;0.70;;;;;;;22.36;55.17;100778.16;4412511;32;20096;-72
2021/06/11 06:20:37;;;;;;;2.58;0.70;;;;;;;22.28;55.73;100770.59;4409527;32;20100;-72
2021/06/11 06:23:02;;;;;;;1.67;0.60;;;;;;;22.40;55.58;100770.09;4410752;32;20053;-72
2021/06/11 06:25:28;;;;;;;5.78;0.93;;;;;;;22.14;54.84;100772.41;4413737;32;20476;-72
2021/06/11 06:27:55;;;;;;;2.67;0.50;;;;;;;21.79;55.40;100776.97;4411846;32;20157;-72
2021/06/11 06:30:23;;;;;;;2.72;1.00;;;;;;;21.72;55.80;100768.87;4413369;32;20461;-73
2021/06/11 06:32:49;;;;;;;3.75;0.98;;;;;;;21.66;56.09;100777.41;4409359;32;20549;-73
2021/06/11 06:35:16;;;;;;;2.30;0.70;;;;;;;21.83;55.78;100777.50;4411129;32;20411;-73
2021/06/11 06:37:42;;;;;;;1.45;0.75;;;;;;;21.61;56.24;100767.53;4410065;32;20431;-73
2021/06/11 06:40:09;;;;;;;2.97;0.60;;;;;;;21.84;55.93;100751.22;4404570;32;20039;-74
2021/06/11 06:42:36;;;;;;;1.17;0.50;;;;;;;22.01;55.11;100762.72;4403586;32;20116;-72
2021/06/11 06:45:04;;;;;;;1.30;0.60;;;;;;;22.17;54.28;100759.91;4401408;32;20085;-73
2021/06/11 06:47:31;;;;;;;4.00;0.85;;;;;;;22.25;53.73;100763.03;4407897;32;20138;-74
2021/06/11 06:49:58;;;;;;;4.68;0.90;;;;;;;22.29;54.22;100770.09;4407172;32;20034;-73
2021/06/11 06:52:24;;;;;;;1.00;0.60;;;;;;;22.42;54.17;100766.69;4404952;32;20518;-73
2021/06/11 06:54:50;;;;;;;6.80;0.90;;;;;;;22.48;53.98;100756.00;4401261;32;20110;-73
2021/06/11 06:57:16;;;;;;;3.25;0.90;;;;;;;22.95;53.08;100766.47;4404457;32;20207;-73
2021/06/11 06:59:41;;;;;;;1.10;0.68;;;;;;;23.32;51.97;100764.84;4402858;32;20072;-73
2021/06/11 07:02:07;;;;;;;3.37;0.70;;;;;;;23.26;51.37;100775.56;4401524;32;20077;-73
2021/06/11 07:04:33;;;;;;;1.35;0.50;;;;;;;23.56;51.08;100766.34;4403558;32;20070;-73
2021/06/11 07:06:59;;;;;;;2.47;0.90;;;;;;;23.63;50.56;100772.34;4399362;32;20107;-74
2021/06/11 07:09:25;;;;;;;3.12;1.25;;;;;;;23.38;50.53;100761.97;4398576;32;20106;-76
2021/06/11 07:11:52;;;;;;;7.10;0.65;;;;;;;23.47;50.07;100761.66;4396502;32;20426;-72
2021/06/11 07:14:19;;;;;;;8.00;0.70;;;;;;;23.50;49.97;100767.16;4399615;32;20095;-74
2021/06/11 07:16:45;;;;;;;3.67;0.43;;;;;;;23.38;50.17;100761.97;4399261;32;20510;-74
2021/06/11 07:19:12;;;;;;;1.50;0.50;;;;;;;23.05;50.99;100777.16;4399429;32;20069;-74
2021/06/11 07:21:38;;;;;;;4.43;1.20;;;;;;;23.16;51.08;100756.25;4395774;32;20086;-73
2021/06/11 07:24:05;;;;;;;1.23;0.50;;;;;;;23.10;51.27;100770.62;4397664;32;20096;-72
2021/06/11 07:26:31;;;;;;;6.03;0.50;;;;;;;23.12;51.18;100761.47;4393944;32;20127;-73
2021/06/11 07:28:57;;;;;;;7.47;0.80;;;;;;;23.05;50.82;100767.75;4400872;32;20105;-74
2021/06/11 07:31:23;;;;;;;3.97;0.50;;;;;;;22.96;51.32;100771.69;4400341;32;20033;-75
2021/06/11 07:33:49;;;;;;;1.90;0.95;;;;;;;23.07;51.45;100768.03;4405289;32;20515;-74
2021/06/11 07:36:15;;;;;;;1.98;0.65;;;;;;;23.46;50.36;100762.97;4402099;32;20038;-74
2021/06/11 07:38:41;;;;;;;2.55;0.57;;;;;;;23.35;49.96;100766.66;4402442;32;20085;-72
2021/06/11 07:41:06;;;;;;;2.25;0.82;;;;;;;23.48;49.57;100781.25;4402238;32;20076;-73
2021/06/11 07:43:32;;;;;;;3.08;0.50;;;;;;;23.22;50.41;100771.38;4403335;32;20104;-74
2021/06/11 07:45:58;;;;;;;6.43;0.60;;;;;;;23.32;50.16;100758.34;4397414;32;20086;-74
2021/06/11 07:48:24;;;;;;;13.52;1.83;;;;;;;23.71;49.27;100776.22;4400609;32;20104;-75
2021/06/11 07:50:50;;;;;;;3.05;0.82;;;;;;;23.35;49.51;100772.41;4399960;32;20962;-72
2021/06/11 07:53:16;;;;;;;0.52;0.40;;;;;;;23.26;49.76;100774.81;4404658;32;20062;-72
2021/06/11 07:55:42;;;;;;;3.12;0.65;;;;;;;23.30;49.86;100764.62;4405489;32;20081;-73
2021/06/11 07:58:08;;;;;;;1.27;0.50;;;;;;;23.36;49.46;100776.88;4404490;32;20484;-72
2021/06/11 08:00:33;;;;;;;2.50;0.70;;;;;;;23.32;49.78;100784.19;4401410;32;20090;-72
2021/06/11 08:03:00;;;;;;;1.12;0.40;;;;;;;23.49;49.83;100774.22;4401974;32;20081;-72
2021/06/11 08:05:27;;;;;;;5.28;0.55;;;;;;;23.37;50.00;100769.81;4398703;32;20125;-71
2021/06/11 08:07:54;;;;;;;1.10;0.40;;;;;;;23.31;49.64;100785.47;4402920;32;20752;-72
2021/06/11 08:10:20;;;;;;;1.83;0.52;;;;;;;23.38;49.74;100785.72;4403066;32;20485;-72
2021/06/11 08:12:46;;;;;;;3.12;0.50;;;;;;;23.28;50.37;100778.72;4399943;32;20329;-72
2021/06/11 08:15:13;;;;;;;3.70;0.50;;;;;;;23.00;50.71;100788.63;4401296;32;20093;-74
2021/06/11 08:17:39;;;;;;;4.93;0.50;;;;;;;22.81;51.15;100776.13;4400331;32;20089;-74
2021/06/11 08:20:07;;;;;;;2.47;0.70;;;;;;;22.97;51.06;100772.47;4401804;32;20189;-73
2021/06/11 08:22:33;;;;;;;5.50;0.77;;;;;;;22.84;51.23;100763.63;4401704;32;20070;-73
2021/06/11 08:24:59;;;;;;;5.12;0.65;;;;;;;23.03;50.64;100762.53;4400941;32;20902;-75
2021/06/11 08:27:25;;;;;;;1.85;0.60;;;;;;;22.99;50.75;100767.00;4403077;32;20415;-74
2021/06/11 08:29:51;;;;;;;1.02;0.60;;;;;;;23.00;50.84;100757.84;4403389;32;20141;-73
2021/06/11 08:32:17;;;;;;;2.40;0.88;;;;;;;23.25;50.33;100759.66;4400333;32;20544;-71
2021/06/11 08:34:43;;;;;;;0.90;0.50;;;;;;;23.33;49.89;100762.78;4402175;32;20694;-72
2021/06/11 08:37:09;;;;;;;3.67;0.62;;;;;;;23.53;49.52;100763.22;4396095;32;20069;-75
2021/06/11 08:39:36;;;;;;;5.80;1.02;;;;;;;23.38;48.93;100764.84;4402253;32;20049;-75
2021/06/11 08:42:04;;;;;;;8.52;1.00;;;;;;;22.83;49.98;100756.31;4399435;32;20038;-73
2021/06/11 08:44:30;;;;;;;1.17;0.62;;;;;;;22.92;49.78;100751.06;4398144;32;20841;-73
2021/06/11 08:46:56;;;;;;;3.12;0.88;;;;;;;22.96;50.09;100756.56;4399223;32;20497;-72
2021/06/11 08:49:24;;;;;;;3.10;0.47;;;;;;;23.03;49.41;100758.87;4399626;32;20148;-73
2021/06/11 08:51:52;;;;;;;2.62;0.90;;;;;;;22.95;49.25;100744.28;4401209;32;20082;-72
2021/06/11 08:54:18;;;;;;;4.60;0.70;;;;;;;23.27;49.02;100739.03;4403788;32;20062;-74
2021/06/11 08:56:45;;;;;;;2.10;0.82;;;;;;;23.40;48.32;100750.72;4402875;32;20034;-71
2021/06/11 08:59:12;;;;;;;7.78;0.98;;;;;;;23.70;48.14;100751.66;4400600;32;20115;-72
2021/06/11 09:01:39;;;;;;;3.33;0.55;;;;;;;24.41;46.77;100749.69;4407073;32;20108;-72
2021/06/11 09:04:04;;;;;;;6.37;0.70;;;;;;;24.30;45.93;100755.53;4405278;32;21324;-72
2021/06/11 09:06:30;;;;;;;5.40;1.70;;;;;;;24.67;45.79;100753.69;4405282;32;20086;-74
2021/06/11 09:08:58;;;;;;;1.95;0.60;;;;;;;24.60;45.89;100762.09;4405264;32;20616;-71
2021/06/11 09:11:27;;;;;;;3.17;1.00;;;;;;;24.71;45.61;100745.56;4404513;32;20099;-71
2021/06/11 09:14:05;;;;;;;8.57;1.15;;;;;;;24.91;45.95;100756.59;4405614;32;20109;-70
2021/06/11 09:16:52;;;;;;;2.25;1.15;;;;;;;24.63;46.37;100770.44;4407071;32;20108;-71
2021/06/11 09:19:18;;;;;;;1.70;0.80;;;;;;;24.96;45.92;100763.63;4403920;32;20069;-72
2021/06/11 09:21:47;;;;;;;0.45;0.45;;;;;;;25.41;45.06;100767.66;4406077;32;20302;-71
2021/06/11 09:34:50;;;;;;;1.70;0.97;;;;;;;27.83;39.89;100808.44;3993073;31;15016465;-73
2021/06/11 09:37:19;;;;;;;1.48;0.70;;;;;;;27.83;39.89;100808.44;4445090;32;20544;-73
2021/06/11 09:39:50;;;;;;;1.17;0.70;;;;;;;27.08;41.14;100816.66;4444825;32;20661;-73
2021/06/11 09:42:20;;;;;;;1.15;0.70;;;;;;;26.72;42.00;100816.22;4442049;32;20135;-73
2021/06/11 09:44:55;;;;;;;2.50;0.80;;;;;;;25.72;44.21;100821.78;4445697;32;20166;-74
2021/06/11 09:53:12;;;;;;;0.80;0.60;;;;;;;24.79;47.52;100815.59;3938228;32;15023410;-73
2021/06/11 09:55:49;;;;;;;7.07;0.90;;;;;;;24.79;47.52;100815.59;4385874;32;20147;-73
2021/06/11 10:00:55;;;;;;;2.95;0.60;;;;;;;24.41;49.01;100822.41;3961918;32;15023805;-76
2021/06/11 10:06:03;;;;;;;5.95;0.82;;;;;;;23.95;50.46;100827.34;3973049;32;15023136;-74
2021/06/11 10:08:30;;;;;;;0.88;0.70;;;;;;;23.95;50.46;100827.34;4427617;32;20040;-74
2021/06/11 10:10:57;;;;;;;4.03;1.35;;;;;;;23.41;51.48;100827.00;4419408;32;20080;-73
2021/06/11 10:13:24;;;;;;;0.98;0.82;;;;;;;23.36;51.79;100833.53;4424212;32;20134;-74
2021/06/11 10:15:52;;;;;;;5.20;1.05;;;;;;;23.22;52.29;100831.66;4426842;32;20442;-74
2021/06/11 10:18:18;;;;;;;1.50;0.98;;;;;;;23.13;52.49;100820.47;4423826;32;20060;-73
2021/06/11 10:20:45;;;;;;;4.28;1.10;;;;;;;23.19;52.75;100824.09;4425173;32;20097;-74
2021/06/11 10:23:14;;;;;;;5.62;1.42;;;;;;;22.99;53.04;100838.75;4427423;32;20022;-73
2021/06/11 10:25:43;;;;;;;3.28;1.00;;;;;;;22.84;53.50;100843.97;4429539;32;20505;-73
2021/06/11 10:28:15;;;;;;;4.35;1.20;;;;;;;22.95;53.46;100841.88;4427298;32;20099;-74
2021/06/11 10:30:41;;;;;;;1.95;1.33;;;;;;;23.22;52.68;100831.66;4421948;32;20057;-73
2021/06/11 10:33:07;;;;;;;4.62;1.10;;;;;;;23.24;52.70;100832.75;4423254;32;20049;-72
2021/06/11 10:35:40;;;;;;;4.62;1.55;;;;;;;23.25;52.93;100833.53;4415944;32;20093;-74
2021/06/11 10:38:29;;;;;;;4.60;1.90;;;;;;;23.01;53.88;100825.44;4412047;32;20529;-71
2021/06/11 10:40:57;;;;;;;4.47;1.40;;;;;;;23.18;53.55;100828.28;4419778;32;20096;-71
2021/06/11 10:49:03;;;;;;;3.70;1.33;;;;;;;23.51;53.04;100837.66;3977514;31;15016203;-72
2021/06/11 10:59:37;;;;;;;1.85;0.98;;;;;;;23.92;52.57;100829.16;3957797;32;15022748;-73
2021/06/11 11:02:04;;;;;;;3.83;1.37;;;;;;;23.89;52.27;100821.59;4410646;32;20049;-72
2021/06/11 11:04:34;;;;;;;2.45;0.90;;;;;;;23.96;51.81;100823.94;4410955;32;20026;-75
2021/06/11 11:13:00;;;;;;;1.80;0.80;;;;;;;24.80;49.79;100820.06;3977364;32;15025149;-74
2021/06/11 11:20:50;;;;;;;3.80;1.23;;;;;;;25.44;48.05;100827.06;3963367;32;15031488;-74
2021/06/11 11:23:19;;;;;;;3.42;1.27;;;;;;;25.44;48.05;100827.06;4413241;32;20592;-74
2021/06/11 11:25:47;;;;;;;2.70;0.90;;;;;;;25.12;48.40;100831.81;4414433;32;20144;-72
2021/06/11 11:28:14;;;;;;;3.22;0.90;;;;;;;25.21;48.21;100832.25;4414538;32;20213;-73
2021/06/11 11:30:45;;;;;;;3.03;0.90;;;;;;;25.02;48.55;100830.59;4414976;32;21120;-72
2021/06/11 11:33:12;;;;;;;7.62;1.25;;;;;;;25.10;48.56;100843.09;4415016;32;20549;-73
2021/06/11 11:35:42;;;;;;;1.48;0.90;;;;;;;25.44;48.11;100826.28;4415490;32;20118;-73
2021/06/11 11:38:09;;;;;;;3.28;1.37;;;;;;;25.73;47.18;100808.12;4413753;32;20415;-72
2021/06/11 11:40:37;;;;;;;3.72;0.90;;;;;;;26.45;45.61;100814.50;4416902;32;20488;-73
2021/06/11 11:43:04;;;;;;;5.28;1.00;;;;;;;27.01;43.78;100812.34;4414047;32;20121;-74
2021/06/11 11:45:32;;;;;;;6.37;0.73;;;;;;;27.51;42.60;100814.31;4414883;32;20085;-74
2021/06/11 11:48:02;;;;;;;3.15;1.17;;;;;;;27.72;41.89;100817.31;4416280;32;20559;-73
2021/06/11 11:50:30;;;;;;;2.17;0.77;;;;;;;27.84;41.45;100810.78;4412764;32;20085;-74
2021/06/11 11:52:56;;;;;;;2.60;0.90;;;;;;;28.09;40.63;100815.00;4415928;32;20093;-73
2021/06/11 11:55:23;;;;;;;1.83;0.80;;;;;;;28.67;39.11;100817.63;4411761;32;20101;-74
2021/06/11 11:57:49;;;;;;;0.85;0.55;;;;;;;28.51;39.20;100813.81;4414996;32;21162;-73
2021/06/11 12:00:16;;;;;;;2.03;0.88;;;;;;;28.41;39.08;100815.56;4413603;32;20053;-75
2021/06/11 12:02:44;;;;;;;3.20;0.80;;;;;;;28.05;40.05;100823.25;4408980;32;20507;-74
2021/06/11 12:05:12;;;;;;;2.65;1.52;;;;;;;27.74;40.95;100817.56;4412661;32;20850;-74
2021/06/11 12:07:39;;;;;;;2.08;0.70;;;;;;;27.47;41.46;100818.88;4411899;32;20519;-73
2021/06/11 12:10:05;;;;;;;2.87;1.20;;;;;;;27.30;41.42;100821.31;4411646;32;20122;-72
2021/06/11 12:12:31;;;;;;;3.05;1.05;;;;;;;27.15;41.75;100839.91;4412555;32;20046;-73
2021/06/11 12:14:57;;;;;;;3.10;1.10;;;;;;;26.47;43.39;100834.16;4414831;32;20406;-73
2021/06/11 12:17:23;;;;;;;1.37;0.57;;;;;;;26.91;42.60;100833.53;4413522;32;20473;-74
2021/06/11 12:19:49;;;;;;;1.70;0.77;;;;;;;27.53;41.06;100828.22;4411869;32;20138;-72
2021/06/11 12:22:15;;;;;;;3.37;2.70;;;;;;;28.04;40.19;100832.47;4410209;32;20073;-72
2021/06/11 12:24:42;;;;;;;3.15;0.70;;;;;;;28.41;39.09;100829.28;4411649;32;20085;-72
2021/06/11 12:27:08;;;;;;;1.15;0.88;;;;;;;28.11;39.41;100849.94;4410963;32;20054;-72